Time;durP1;ratioP1;P1;durP2;ratioP2;P2;SDS_P1;SDS_P2;PMS_P1;PMS_P2;Temp;Humidity;BMP_temperature;BMP_pressure;BME280_temperature;BME280_humidity;BME280_pressure;Samples;Min_cycle;Max_cycle;Signal;HPM_P1;HPM_P2
2023/03/03 00:01:44;;;;;;;5.00;3.83;;;6.50;99.90;;;;;;5077075;28;20235;-51
2023/03/03 00:04:12;;;;;;;5.53;3.55;;;6.60;99.90;;;;;;5074526;28;20207;-49
2023/03/03 00:06:41;;;;;;;3.97;2.72;;;6.60;99.90;;;;;;5070517;28;20217;-48
2023/03/03 00:09:09;;;;;;;4.63;3.05;;;6.50;99.90;;;;;;5075679;28;20194;-49
2023/03/03 00:11:38;;;;;;;4.18;2.75;;;6.50;99.90;;;;;;5075792;28;20227;-48
2023/03/03 00:14:19;;;;;;;5.82;3.50;;;6.50;99.90;;;;;;5059915;28;20220;-49
2023/03/03 00:16:48;;;;;;;3.95;2.85;;;6.50;99.90;;;;;;5076476;28;20332;-50
2023/03/03 00:19:20;;;;;;;4.50;3.58;;;6.50;99.90;;;;;;5071134;28;20236;-49
2023/03/03 00:21:50;;;;;;;5.18;3.45;;;6.50;99.90;;;;;;5063989;28;20230;-51
2023/03/03 00:24:21;;;;;;;3.58;3.10;;;6.50;99.90;;;;;;5069034;28;20809;-50
2023/03/03 00:26:54;;;;;;;3.72;2.92;;;6.50;99.90;;;;;;5062186;28;20224;-48
2023/03/03 00:29:34;;;;;;;3.97;2.80;;;6.50;99.90;;;;;;5067530;28;20326;-49
2023/03/03 00:32:23;;;;;;;5.10;3.97;;;6.50;99.90;;;;;;5065743;28;20223;-52
2023/03/03 00:34:52;;;;;;;5.55;3.55;;;6.50;99.90;;;;;;5073580;28;20222;-49
2023/03/03 00:37:30;;;;;;;5.53;3.70;;;6.50;99.90;;;;;;5065794;28;20228;-48
2023/03/03 00:40:24;;;;;;;6.13;3.15;;;6.50;99.90;;;;;;5067557;28;20322;-51
2023/03/03 00:42:54;;;;;;;5.10;3.47;;;6.50;99.90;;;;;;5059600;28;20216;-48
2023/03/03 00:45:31;;;;;;;4.13;3.20;;;6.50;99.90;;;;;;5067598;28;20195;-51
2023/03/03 00:48:17;;;;;;;3.60;3.10;;;6.50;99.90;;;;;;5065579;28;20189;-49
2023/03/03 00:50:46;;;;;;;4.63;3.20;;;6.50;99.90;;;;;;5085479;28;20239;-48
2023/03/03 00:53:16;;;;;;;3.35;3.05;;;6.50;99.90;;;;;;5066563;28;20196;-47
2023/03/03 00:55:46;;;;;;;4.55;3.05;;;6.50;99.90;;;;;;5069865;28;20212;-49
2023/03/03 00:58:15;;;;;;;4.47;3.58;;;6.50;99.90;;;;;;5065618;28;20220;-48
2023/03/03 01:00:49;;;;;;;4.20;3.40;;;6.50;99.90;;;;;;5063777;28;20221;-49
2023/03/03 01:03:21;;;;;;;5.20;4.53;;;6.50;99.90;;;;;;5070043;28;20220;-49
2023/03/03 01:05:50;;;;;;;4.72;3.40;;;6.50;99.90;;;;;;5062528;28;20273;-49
2023/03/03 01:08:19;;;;;;;4.55;3.80;;;6.50;99.90;;;;;;5067757;28;20235;-48
2023/03/03 01:10:50;;;;;;;3.83;3.50;;;6.50;99.90;;;;;;5067225;28;20220;-48
2023/03/03 01:13:21;;;;;;;5.05;3.63;;;6.50;99.90;;;;;;5065484;28;20196;-50
2023/03/03 01:15:51;;;;;;;4.18;3.08;;;6.50;99.90;;;;;;5066959;28;20228;-48
2023/03/03 01:18:20;;;;;;;5.10;3.90;;;6.50;99.90;;;;;;5067995;28;20738;-48
2023/03/03 01:20:48;;;;;;;4.18;2.97;;;6.50;99.90;;;;;;5068672;28;20236;-49
2023/03/03 01:23:18;;;;;;;6.85;4.55;;;6.50;99.90;;;;;;5066877;28;20248;-49
2023/03/03 01:25:46;;;;;;;5.50;3.45;;;6.50;99.90;;;;;;5069112;28;20303;-47
2023/03/03 01:28:15;;;;;;;5.72;3.88;;;6.50;99.90;;;;;;5065425;28;20206;-51
2023/03/03 01:30:43;;;;;;;4.80;3.70;;;6.50;99.90;;;;;;5062318;28;20235;-50
2023/03/03 01:33:14;;;;;;;5.80;3.50;;;6.40;99.90;;;;;;5070352;28;20203;-50
2023/03/03 01:35:46;;;;;;;4.38;3.78;;;6.40;99.90;;;;;;5069632;28;20224;-50
2023/03/03 01:38:14;;;;;;;5.32;3.72;;;6.50;99.90;;;;;;5062946;28;20319;-50
2023/03/03 01:40:43;;;;;;;6.15;3.35;;;6.40;99.90;;;;;;5070992;28;20308;-49
2023/03/03 01:43:15;;;;;;;6.90;4.35;;;6.40;99.90;;;;;;5072123;28;20652;-50
2023/03/03 01:46:31;;;;;;;4.82;3.67;;;6.40;99.90;;;;;;5068800;28;20717;-47
2023/03/03 01:49:05;;;;;;;5.50;3.67;;;6.40;99.90;;;;;;5068746;28;20181;-49
2023/03/03 01:51:37;;;;;;;6.25;4.57;;;6.40;99.90;;;;;;5062779;28;20717;-49
2023/03/03 01:54:12;;;;;;;5.22;3.50;;;6.40;99.90;;;;;;5069845;28;20684;-50
2023/03/03 01:56:42;;;;;;;5.47;4.00;;;6.40;99.90;;;;;;5069743;28;20601;-49
2023/03/03 01:59:16;;;;;;;5.65;3.70;;;6.40;99.90;;;;;;5061698;28;20225;-48
2023/03/03 02:01:46;;;;;;;5.10;3.97;;;6.40;99.90;;;;;;5069186;28;20238;-49
2023/03/03 02:04:17;;;;;;;7.40;3.97;;;6.40;99.90;;;;;;5066008;28;20280;-52
2023/03/03 02:06:50;;;;;;;5.10;4.30;;;6.40;99.90;;;;;;5066679;28;20224;-49
2023/03/03 02:09:27;;;;;;;4.05;3.53;;;6.40;99.90;;;;;;5069610;28;20615;-49
2023/03/03 02:12:00;;;;;;;6.00;4.38;;;6.40;99.90;;;;;;5082552;28;20638;-48
2023/03/03 02:14:28;;;;;;;7.63;5.10;;;6.40;99.90;;;;;;5076923;28;20225;-49
2023/03/03 02:16:57;;;;;;;6.40;4.45;;;6.40;99.90;;;;;;5062501;28;20206;-50
2023/03/03 02:19:35;;;;;;;6.00;4.90;;;6.40;99.90;;;;;;5064941;28;20240;-49
2023/03/03 02:22:04;;;;;;;7.40;4.75;;;6.40;99.90;;;;;;5073406;28;20651;-47
2023/03/03 02:24:39;;;;;;;7.80;4.43;;;6.40;99.90;;;;;;5068259;28;20689;-47
2023/03/03 02:27:09;;;;;;;7.53;4.57;;;6.40;99.90;;;;;;5066750;28;20197;-49
2023/03/03 02:29:38;;;;;;;6.00;4.63;;;6.40;99.90;;;;;;5066080;28;20203;-49
2023/03/03 02:32:07;;;;;;;5.00;3.88;;;6.40;99.90;;;;;;5078919;28;20641;-49
2023/03/03 02:34:48;;;;;;;7.32;4.35;;;6.40;99.90;;;;;;5067706;28;20202;-49
2023/03/03 02:37:17;;;;;;;7.25;4.47;;;6.40;99.90;;;;;;5064282;28;20560;-48
2023/03/03 02:39:46;;;;;;;7.50;4.78;;;6.40;99.90;;;;;;5062883;28;20225;-48
2023/03/03 02:42:22;;;;;;;6.22;4.57;;;6.40;99.90;;;;;;5064192;28;20224;-49
2023/03/03 02:44:54;;;;;;;9.70;6.05;;;6.40;99.90;;;;;;5061727;28;20194;-50
2023/03/03 02:47:24;;;;;;;9.23;5.68;;;6.40;99.90;;;;;;5068066;28;20309;-49
2023/03/03 02:49:52;;;;;;;7.30;5.53;;;6.40;99.90;;;;;;5064260;28;20660;-48
2023/03/03 02:52:21;;;;;;;6.90;4.82;;;6.40;99.90;;;;;;5062793;28;20235;-50
2023/03/03 02:54:50;;;;;;;7.40;4.72;;;6.30;99.90;;;;;;5064613;28;20220;-49
2023/03/03 02:57:20;;;;;;;8.70;5.72;;;6.40;99.90;;;;;;5067265;28;20188;-49
2023/03/03 02:59:49;;;;;;;7.70;5.43;;;6.40;99.90;;;;;;5063585;28;20220;-49
2023/03/03 03:02:19;;;;;;;7.72;4.93;;;6.30;99.90;;;;;;5067958;28;20246;-49
2023/03/03 03:04:47;;;;;;;7.85;5.45;;;6.40;99.90;;;;;;5065880;28;20192;-48
2023/03/03 03:07:21;;;;;;;10.60;6.30;;;6.30;99.90;;;;;;5066729;28;20325;-49
2023/03/03 03:09:50;;;;;;;6.18;4.72;;;6.40;99.90;;;;;;5062154;28;20210;-50
2023/03/03 03:12:20;;;;;;;7.43;5.55;;;6.30;99.90;;;;;;5068945;28;20221;-50
2023/03/03 03:14:52;;;;;;;8.93;5.95;;;6.30;99.90;;;;;;5069740;28;20190;-50
2023/03/03 03:17:21;;;;;;;8.45;5.15;;;6.40;99.90;;;;;;5067299;28;20197;-49
2023/03/03 03:19:51;;;;;;;7.72;5.20;;;6.30;99.90;;;;;;5063700;28;20213;-51
2023/03/03 03:22:20;;;;;;;8.80;5.03;;;6.30;99.90;;;;;;5068964;28;20562;-48
2023/03/03 03:24:49;;;;;;;9.77;5.97;;;6.30;99.90;;;;;;5064252;28;20235;-48
2023/03/03 03:27:19;;;;;;;9.32;5.30;;;6.30;99.90;;;;;;5064410;28;20230;-48
2023/03/03 03:29:49;;;;;;;8.20;5.95;;;6.30;99.90;;;;;;5062659;28;20201;-48
2023/03/03 03:32:19;;;;;;;12.77;8.77;;;6.30;99.90;;;;;;5062468;28;20249;-48
2023/03/03 03:34:48;;;;;;;9.40;6.00;;;6.30;99.90;;;;;;5066692;28;20255;-48
2023/03/03 03:37:17;;;;;;;9.55;5.35;;;6.30;99.90;;;;;;5086247;28;20207;-49
2023/03/03 03:39:46;;;;;;;11.35;6.95;;;6.30;99.90;;;;;;5067179;28;20573;-49
2023/03/03 03:42:15;;;;;;;8.45;6.13;;;6.30;99.90;;;;;;5072709;28;20251;-49
2023/03/03 03:44:45;;;;;;;11.60;6.57;;;6.30;99.90;;;;;;5066836;28;20347;-50
2023/03/03 03:47:15;;;;;;;12.25;7.65;;;6.30;99.90;;;;;;5071512;28;20388;-50
2023/03/03 03:49:44;;;;;;;11.65;6.28;;;6.30;99.90;;;;;;5066794;28;20189;-50
2023/03/03 03:52:13;;;;;;;11.20;6.72;;;6.30;99.90;;;;;;5071353;28;20216;-49
2023/03/03 03:54:42;;;;;;;8.88;6.13;;;6.30;99.90;;;;;;5083629;28;20193;-52
2023/03/03 03:57:11;;;;;;;10.35;6.18;;;6.30;99.90;;;;;;5070203;28;20569;-50
2023/03/03 03:59:40;;;;;;;10.93;7.03;;;6.30;99.90;;;;;;5069817;28;20653;-49
2023/03/03 04:02:10;;;;;;;9.95;6.53;;;6.30;99.90;;;;;;5068513;28;20216;-48
2023/03/03 04:04:38;;;;;;;9.93;6.13;;;6.30;99.90;;;;;;5070089;28;20570;-49
2023/03/03 04:07:07;;;;;;;9.57;6.25;;;6.30;99.90;;;;;;5063930;28;20216;-49
2023/03/03 04:09:39;;;;;;;10.70;6.78;;;6.30;99.90;;;;;;5070965;28;20193;-48
2023/03/03 04:12:08;;;;;;;9.52;6.60;;;6.30;99.90;;;;;;5066526;28;20220;-49
2023/03/03 04:14:37;;;;;;;10.98;6.60;;;6.30;99.90;;;;;;5065862;28;20219;-49
2023/03/03 04:17:06;;;;;;;13.05;7.80;;;6.30;99.90;;;;;;5069543;28;20246;-49
2023/03/03 04:19:36;;;;;;;10.38;7.10;;;6.20;99.90;;;;;;5089706;28;20216;-52
2023/03/03 04:22:06;;;;;;;15.18;8.02;;;6.20;99.90;;;;;;5067130;28;20221;-49
2023/03/03 04:24:34;;;;;;;10.27;7.30;;;6.30;99.90;;;;;;5070998;28;20652;-52
2023/03/03 04:27:04;;;;;;;12.25;7.78;;;6.20;99.90;;;;;;5065970;28;20193;-49
2023/03/03 04:29:33;;;;;;;12.48;7.63;;;6.20;99.90;;;;;;5069600;28;20185;-48
2023/03/03 04:32:02;;;;;;;11.15;6.80;;;6.20;99.90;;;;;;5068459;28;20303;-49
2023/03/03 04:34:30;;;;;;;12.65;8.25;;;6.30;99.90;;;;;;5062488;28;20226;-49
2023/03/03 04:37:01;;;;;;;10.27;7.57;;;6.30;99.90;;;;;;5050633;28;20219;-49
2023/03/03 04:39:30;;;;;;;12.30;7.10;;;6.20;99.90;;;;;;5063926;28;20209;-49
2023/03/03 04:41:59;;;;;;;11.30;8.32;;;6.20;99.90;;;;;;5067691;28;20212;-49
2023/03/03 04:44:27;;;;;;;13.10;8.70;;;6.20;99.90;;;;;;5061825;28;20211;-48
2023/03/03 04:46:56;;;;;;;16.25;9.75;;;6.20;99.90;;;;;;5067108;28;20697;-49
2023/03/03 04:49:25;;;;;;;13.65;9.05;;;6.20;99.90;;;;;;5068786;28;20195;-50
2023/03/03 04:51:54;;;;;;;12.73;8.10;;;6.20;99.90;;;;;;5063202;28;20237;-51
2023/03/03 04:54:24;;;;;;;13.48;8.27;;;6.20;99.90;;;;;;5067038;28;20209;-49
2023/03/03 04:56:53;;;;;;;12.02;6.50;;;6.20;99.90;;;;;;5063881;28;20639;-49
2023/03/03 04:59:22;;;;;;;14.68;7.45;;;6.20;99.90;;;;;;5085784;28;20228;-51
2023/03/03 05:01:51;;;;;;;21.10;12.55;;;6.20;99.90;;;;;;5062668;28;20224;-49
2023/03/03 05:04:19;;;;;;;14.80;8.70;;;6.20;99.90;;;;;;5064897;28;20572;-51
2023/03/03 05:06:48;;;;;;;13.55;8.43;;;6.20;99.90;;;;;;5080449;28;20284;-51
2023/03/03 05:09:16;;;;;;;15.98;8.13;;;6.20;99.90;;;;;;5069213;28;20199;-50
2023/03/03 05:11:46;;;;;;;12.63;8.43;;;6.20;99.90;;;;;;5052751;28;20709;-49
2023/03/03 05:14:15;;;;;;;11.43;7.15;;;6.20;99.90;;;;;;5065962;28;20200;-49
2023/03/03 05:16:43;;;;;;;11.32;8.00;;;6.20;99.90;;;;;;5068175;28;20294;-49
2023/03/03 05:19:12;;;;;;;11.60;8.07;;;6.20;99.90;;;;;;5086433;28;20211;-49
2023/03/03 05:21:41;;;;;;;17.45;10.00;;;6.20;99.90;;;;;;5083796;28;20229;-47
2023/03/03 05:24:10;;;;;;;12.60;7.90;;;6.20;99.90;;;;;;5068131;28;20202;-49
2023/03/03 05:26:39;;;;;;;14.38;8.90;;;6.10;99.90;;;;;;5064591;28;20222;-49
2023/03/03 05:29:09;;;;;;;17.15;9.82;;;6.10;99.90;;;;;;5064854;28;20195;-48
2023/03/03 05:31:38;;;;;;;12.88;8.80;;;6.20;99.90;;;;;;5061137;28;20693;-50
2023/03/03 05:34:06;;;;;;;16.02;8.60;;;6.10;99.90;;;;;;5062960;28;20658;-50
2023/03/03 05:36:35;;;;;;;14.07;8.70;;;6.10;99.90;;;;;;5065999;28;20220;-50
2023/03/03 05:39:04;;;;;;;15.13;8.95;;;6.20;99.90;;;;;;5062045;28;20196;-50
2023/03/03 05:41:35;;;;;;;15.45;9.77;;;6.10;99.90;;;;;;5065366;28;20221;-49
2023/03/03 05:44:04;;;;;;;13.00;8.88;;;6.10;99.90;;;;;;5078176;28;20218;-48
2023/03/03 05:46:34;;;;;;;15.32;8.80;;;6.10;99.90;;;;;;5068986;28;20216;-49
2023/03/03 05:49:02;;;;;;;16.42;10.07;;;6.10;99.90;;;;;;5062327;28;20784;-50
2023/03/03 05:51:31;;;;;;;15.05;9.68;;;6.10;99.90;;;;;;5069194;28;20224;-50
2023/03/03 05:54:00;;;;;;;12.63;9.15;;;6.10;99.90;;;;;;5060922;28;20285;-48
2023/03/03 05:56:28;;;;;;;12.73;9.15;;;6.10;99.90;;;;;;5065207;28;20228;-50
2023/03/03 05:58:57;;;;;;;21.40;10.75;;;6.10;99.90;;;;;;5064766;28;20201;-50
2023/03/03 06:01:27;;;;;;;17.83;10.80;;;6.10;99.90;;;;;;5060594;28;20224;-49
2023/03/03 06:03:57;;;;;;;30.30;15.63;;;6.10;99.90;;;;;;5068022;28;20557;-49
2023/03/03 06:06:27;;;;;;;20.60;12.98;;;6.10;99.90;;;;;;5068490;28;20694;-50
2023/03/03 06:08:55;;;;;;;20.25;12.10;;;6.10;99.90;;;;;;5059809;28;20188;-49
2023/03/03 06:11:24;;;;;;;18.23;10.02;;;6.10;99.90;;;;;;5068595;28;20252;-50
2023/03/03 06:13:53;;;;;;;21.05;11.45;;;6.10;99.90;;;;;;5063740;28;20198;-48
2023/03/03 06:16:22;;;;;;;13.80;9.00;;;6.10;99.90;;;;;;5065989;28;20216;-50
2023/03/03 06:18:50;;;;;;;15.85;9.25;;;6.10;99.90;;;;;;5065993;28;20196;-50
2023/03/03 06:21:20;;;;;;;15.50;10.07;;;6.10;99.90;;;;;;5085156;28;20267;-50
2023/03/03 06:23:49;;;;;;;17.75;11.32;;;6.10;99.90;;;;;;5060984;28;20720;-51
2023/03/03 06:26:17;;;;;;;16.40;10.65;;;6.00;99.90;;;;;;5064635;28;20715;-48
2023/03/03 06:28:46;;;;;;;15.98;10.38;;;6.00;99.90;;;;;;5061978;28;20201;-50
2023/03/03 06:31:15;;;;;;;18.42;10.15;;;6.10;99.90;;;;;;5069193;28;20697;-48
2023/03/03 06:33:44;;;;;;;17.55;10.00;;;6.00;99.90;;;;;;5059509;28;21055;-49
2023/03/03 06:36:12;;;;;;;18.40;11.18;;;6.00;99.90;;;;;;5062052;28;20223;-49
2023/03/03 06:38:42;;;;;;;26.45;14.00;;;6.00;99.90;;;;;;5075352;28;20574;-50
2023/03/03 06:41:11;;;;;;;20.08;11.15;;;6.00;99.90;;;;;;5063223;28;20729;-49
2023/03/03 06:43:40;;;;;;;21.55;10.50;;;6.00;99.90;;;;;;5063174;28;20200;-48
2023/03/03 06:46:08;;;;;;;17.75;9.65;;;6.00;99.90;;;;;;5063655;28;20227;-47
2023/03/03 06:48:37;;;;;;;19.98;10.13;;;6.00;99.90;;;;;;5081693;28;20689;-49
2023/03/03 06:51:20;;;;;;;17.30;10.02;;;6.00;99.90;;;;;;5061929;28;20293;-48
2023/03/03 06:53:52;;;;;;;19.35;10.07;;;6.00;99.90;;;;;;5064548;28;20245;-48
2023/03/03 06:56:21;;;;;;;16.13;10.52;;;6.00;99.90;;;;;;5061268;28;20231;-48
2023/03/03 06:58:50;;;;;;;15.32;9.63;;;6.00;99.90;;;;;;5064224;28;23225;-48
2023/03/03 07:01:18;;;;;;;17.30;9.48;;;6.00;99.90;;;;;;5066460;28;20228;-48
2023/03/03 07:03:47;;;;;;;14.07;9.48;;;6.00;99.90;;;;;;5068474;28;20215;-51
2023/03/03 07:06:22;;;;;;;18.73;9.65;;;6.00;99.90;;;;;;5082876;28;20398;-50
2023/03/03 07:08:52;;;;;;;19.05;11.38;;;6.00;99.90;;;;;;5049768;28;20196;-49
2023/03/03 07:11:23;;;;;;;15.07;9.73;;;6.00;99.90;;;;;;5065110;28;20236;-47
2023/03/03 07:13:54;;;;;;;14.60;8.65;;;6.00;99.90;;;;;;5066032;28;20196;-49
2023/03/03 07:16:26;;;;;;;17.15;10.25;;;6.00;99.90;;;;;;5070894;28;20219;-48
2023/03/03 07:18:57;;;;;;;29.88;15.70;;;6.00;99.90;;;;;;5065082;28;20196;-49
2023/03/03 07:21:31;;;;;;;17.85;10.57;;;6.00;99.90;;;;;;5070683;28;20320;-49
2023/03/03 07:24:10;;;;;;;30.27;16.98;;;6.00;99.90;;;;;;5062668;28;20196;-49
2023/03/03 07:26:39;;;;;;;28.92;16.70;;;6.00;99.90;;;;;;5067506;28;20219;-50
2023/03/03 07:29:21;;;;;;;20.50;12.02;;;6.00;99.90;;;;;;5062519;28;20206;-49
2023/03/03 07:31:50;;;;;;;25.38;14.68;;;5.90;99.90;;;;;;5071309;28;20216;-49
2023/03/03 07:34:22;;;;;;;23.33;12.55;;;6.00;99.90;;;;;;5063085;28;20669;-48
2023/03/03 07:36:53;;;;;;;16.85;11.25;;;5.90;99.90;;;;;;5087773;28;20311;-48
2023/03/03 07:39:31;;;;;;;20.77;11.32;;;5.90;99.90;;;;;;5071056;28;20851;-48
2023/03/03 07:42:18;;;;;;;17.63;11.20;;;6.00;99.90;;;;;;5066830;28;20685;-52
2023/03/03 07:44:54;;;;;;;18.40;11.45;;;5.90;99.90;;;;;;5066404;28;20202;-50
2023/03/03 07:47:25;;;;;;;18.02;12.50;;;5.90;99.90;;;;;;5086248;28;20200;-48
2023/03/03 07:49:56;;;;;;;14.98;10.23;;;5.90;99.90;;;;;;5064817;28;20226;-49
2023/03/03 07:52:28;;;;;;;17.92;10.45;;;6.00;99.90;;;;;;5071662;28;20226;-50
2023/03/03 07:55:02;;;;;;;17.05;10.90;;;5.90;99.90;;;;;;5066099;28;20181;-48
2023/03/03 07:57:36;;;;;;;15.88;11.13;;;5.90;99.90;;;;;;5072837;28;20206;-50
2023/03/03 08:00:48;;;;;;;20.08;11.15;;;5.90;99.90;;;;;;5076865;28;20283;-50
2023/03/03 08:03:19;;;;;;;18.70;11.27;;;6.00;99.90;;;;;;5086653;28;20213;-49
2023/03/03 08:05:49;;;;;;;20.58;12.18;;;5.90;99.90;;;;;;5080571;28;20224;-49
2023/03/03 08:08:30;;;;;;;20.15;12.00;;;5.90;99.90;;;;;;5071080;28;20585;-49
2023/03/03 08:11:01;;;;;;;19.67;11.70;;;5.90;99.90;;;;;;5067486;28;20296;-49
2023/03/03 08:13:37;;;;;;;19.25;11.13;;;5.90;99.90;;;;;;5075442;28;20303;-50
2023/03/03 08:16:25;;;;;;;16.83;10.18;;;5.90;99.90;;;;;;5086073;28;20693;-49
2023/03/03 08:18:54;;;;;;;16.13;10.63;;;5.90;99.90;;;;;;5068983;28;20203;-47
2023/03/03 08:21:24;;;;;;;17.52;11.13;;;5.90;99.90;;;;;;5065188;28;20234;-49
2023/03/03 08:23:53;;;;;;;20.40;10.43;;;5.90;99.90;;;;;;5067097;28;20283;-50
2023/03/03 08:26:24;;;;;;;19.65;12.15;;;5.90;99.90;;;;;;5069636;28;20216;-49
2023/03/03 08:28:54;;;;;;;24.80;14.27;;;5.90;99.90;;;;;;5064661;28;20254;-50
2023/03/03 08:31:22;;;;;;;22.75;12.20;;;5.90;99.90;;;;;;5063039;28;20277;-47
2023/03/03 08:34:07;;;;;;;16.52;9.38;;;5.90;99.90;;;;;;5077315;28;20277;-49
2023/03/03 08:36:36;;;;;;;18.88;9.73;;;5.90;99.90;;;;;;5072135;28;20231;-50
2023/03/03 08:39:05;;;;;;;13.23;9.60;;;5.90;99.90;;;;;;5060083;28;20251;-49
2023/03/03 08:41:35;;;;;;;15.38;9.88;;;5.90;99.90;;;;;;5070042;28;20267;-49
2023/03/03 08:44:03;;;;;;;16.00;10.88;;;5.90;99.90;;;;;;5065492;28;20198;-51
2023/03/03 08:46:32;;;;;;;20.23;10.10;;;5.90;99.90;;;;;;5059530;28;20221;-48
2023/03/03 08:49:01;;;;;;;17.17;9.77;;;5.90;99.90;;;;;;5088293;28;20562;-49
2023/03/03 08:51:29;;;;;;;16.90;9.88;;;5.90;99.90;;;;;;5068136;28;20593;-49
2023/03/03 08:53:58;;;;;;;18.00;11.32;;;5.90;99.90;;;;;;5068531;28;20670;-47
2023/03/03 08:56:27;;;;;;;16.55;9.65;;;5.90;99.90;;;;;;5066520;28;20223;-48
2023/03/03 08:58:56;;;;;;;14.30;9.90;;;5.80;99.90;;;;;;5063699;28;20262;-49
2023/03/03 09:01:31;;;;;;;13.80;9.10;;;5.80;99.90;;;;;;5066583;28;20700;-48
2023/03/03 09:04:00;;;;;;;14.18;10.07;;;5.80;99.90;;;;;;5067466;28;20406;-49
2023/03/03 09:06:29;;;;;;;15.20;9.05;;;5.90;99.90;;;;;;5078932;28;20225;-50
2023/03/03 09:08:57;;;;;;;20.88;10.73;;;5.90;99.90;;;;;;5068878;28;20443;-48
2023/03/03 09:11:28;;;;;;;17.13;11.30;;;5.90;99.90;;;;;;5066450;28;20221;-50
2023/03/03 09:14:06;;;;;;;16.92;9.60;;;5.90;99.90;;;;;;5060808;28;20193;-48
2023/03/03 09:16:38;;;;;;;15.10;9.82;;;5.80;99.90;;;;;;5080137;28;20270;-48
2023/03/03 09:19:21;;;;;;;16.75;9.57;;;5.80;99.90;;;;;;5063848;28;20189;-48
2023/03/03 09:21:53;;;;;;;17.50;9.90;;;5.80;99.90;;;;;;5049267;28;20220;-48
2023/03/03 09:24:27;;;;;;;17.38;10.98;;;5.80;99.90;;;;;;5087450;28;20204;-48
2023/03/03 09:26:57;;;;;;;21.67;11.25;;;5.80;99.90;;;;;;5082286;28;20216;-49
2023/03/03 09:29:29;;;;;;;16.15;10.15;;;5.80;99.90;;;;;;5061527;28;20200;-48
2023/03/03 09:32:00;;;;;;;18.40;11.68;;;5.80;99.90;;;;;;5066212;28;20279;-48
2023/03/03 09:34:39;;;;;;;18.75;10.68;;;5.80;99.90;;;;;;5067778;28;20210;-49
2023/03/03 09:37:22;;;;;;;17.08;11.25;;;5.80;99.90;;;;;;5063377;28;20568;-50
2023/03/03 09:39:52;;;;;;;18.08;10.52;;;5.80;99.90;;;;;;5079351;28;20204;-50
2023/03/03 09:42:51;;;;;;;16.90;10.15;;;5.80;99.90;;;;;;5068070;28;20212;-49
2023/03/03 09:45:35;;;;;;;17.13;10.60;;;5.80;99.90;;;;;;5065156;28;20233;-48
2023/03/03 09:48:33;;;;;;;19.98;11.07;;;5.80;99.90;;;;;;5065484;28;20261;-48
2023/03/03 09:51:18;;;;;;;19.85;11.15;;;5.80;99.90;;;;;;5064825;28;20225;-49
2023/03/03 09:53:59;;;;;;;17.65;9.70;;;5.80;99.90;;;;;;5064758;28;20189;-47
2023/03/03 09:56:34;;;;;;;18.90;10.20;;;5.80;99.90;;;;;;5057663;28;20221;-49
2023/03/03 09:59:30;;;;;;;20.70;12.30;;;5.80;99.90;;;;;;5061175;28;20205;-48
2023/03/03 10:02:15;;;;;;;18.85;9.38;;;5.80;99.90;;;;;;5068187;28;20344;-50
2023/03/03 10:05:04;;;;;;;17.75;10.45;;;5.80;99.90;;;;;;5067213;28;20197;-49
2023/03/03 10:07:48;;;;;;;15.95;10.73;;;5.80;99.90;;;;;;5078006;28;20199;-49
2023/03/03 10:10:29;;;;;;;18.45;10.70;;;5.80;99.90;;;;;;5054715;28;20216;-49
2023/03/03 10:13:12;;;;;;;16.67;10.23;;;5.80;99.90;;;;;;5065583;28;20332;-49
2023/03/03 10:15:53;;;;;;;16.30;10.40;;;5.80;99.90;;;;;;5059475;28;20226;-49
2023/03/03 10:18:32;;;;;;;18.08;11.00;;;5.80;99.90;;;;;;5065953;28;20229;-48
2023/03/03 10:21:09;;;;;;;15.90;9.75;;;5.80;99.90;;;;;;5065980;28;20221;-50
2023/03/03 10:23:54;;;;;;;18.00;10.30;;;5.80;99.90;;;;;;5086638;28;20552;-49
2023/03/03 10:26:59;;;;;;;17.95;10.32;;;5.80;99.90;;;;;;5086450;28;20254;-49
2023/03/03 10:29:53;;;;;;;16.67;10.55;;;5.80;99.90;;;;;;5072339;28;20220;-49
2023/03/03 10:32:36;;;;;;;19.42;10.63;;;5.80;99.90;;;;;;5065503;28;20226;-48
2023/03/03 10:35:39;;;;;;;15.88;9.85;;;5.80;99.90;;;;;;5062585;28;20208;-50
2023/03/03 10:38:54;;;;;;;16.55;9.48;;;5.80;99.90;;;;;;5063569;28;20184;-48
2023/03/03 10:41:44;;;;;;;16.33;10.75;;;5.80;99.90;;;;;;5051214;28;20323;-48
2023/03/03 10:44:39;;;;;;;22.48;10.23;;;5.80;99.90;;;;;;5060856;28;20206;-48
2023/03/03 10:47:36;;;;;;;21.38;11.85;;;5.80;99.90;;;;;;5076855;28;20231;-48
2023/03/03 10:50:14;;;;;;;20.83;12.18;;;5.80;99.90;;;;;;5073805;28;20206;-48
2023/03/03 10:52:49;;;;;;;17.50;10.02;;;5.80;99.90;;;;;;5071654;28;20709;-48
2023/03/03 10:55:31;;;;;;;16.00;10.75;;;5.80;99.90;;;;;;5067199;28;20292;-50
2023/03/03 10:58:21;;;;;;;19.30;10.35;;;5.80;99.90;;;;;;5090962;28;20194;-50
2023/03/03 11:00:57;;;;;;;17.30;10.85;;;5.80;99.90;;;;;;5066242;28;20216;-48
2023/03/03 11:04:11;;;;;;;24.33;10.48;;;5.70;99.90;;;;;;5071084;28;20204;-50
2023/03/03 11:06:49;;;;;;;30.55;16.33;;;5.70;99.90;;;;;;5086560;28;20220;-48
2023/03/03 11:09:36;;;;;;;23.27;11.35;;;5.80;99.90;;;;;;5072016;28;20567;-48
2023/03/03 11:12:19;;;;;;;16.80;11.55;;;5.70;99.90;;;;;;5072460;28;20224;-51
2023/03/03 11:15:03;;;;;;;21.10;11.43;;;5.70;99.90;;;;;;5071966;28;20623;-48
2023/03/03 11:17:45;;;;;;;18.30;9.75;;;5.70;99.90;;;;;;5077129;28;20415;-49
2023/03/03 11:20:30;;;;;;;29.10;15.80;;;5.70;99.90;;;;;;5089674;28;20228;-49
2023/03/03 11:23:07;;;;;;;31.98;17.23;;;5.70;99.90;;;;;;5064857;28;20220;-51
2023/03/03 11:25:44;;;;;;;20.73;11.70;;;5.70;99.90;;;;;;5071810;28;20195;-49
2023/03/03 11:28:31;;;;;;;29.20;15.35;;;5.70;99.90;;;;;;5062224;28;20212;-48
2023/03/03 11:31:13;;;;;;;18.60;11.45;;;5.70;99.90;;;;;;5073662;28;20231;-48
2023/03/03 11:33:50;;;;;;;24.92;14.07;;;5.70;99.90;;;;;;5071002;28;20225;-47
2023/03/03 11:36:23;;;;;;;19.60;12.55;;;5.70;99.90;;;;;;5071214;28;20591;-50
2023/03/03 11:38:57;;;;;;;26.77;15.10;;;5.70;99.90;;;;;;5038532;28;20203;-49
2023/03/03 11:41:39;;;;;;;17.52;10.95;;;5.70;99.90;;;;;;5068817;28;20267;-51
2023/03/03 11:44:22;;;;;;;17.60;10.70;;;5.70;99.90;;;;;;5072419;28;20570;-48
2023/03/03 11:46:53;;;;;;;17.02;10.35;;;5.70;99.90;;;;;;5067574;28;20647;-49
2023/03/03 11:49:28;;;;;;;19.23;11.93;;;5.70;99.90;;;;;;5073607;28;20193;-48
2023/03/03 11:52:05;;;;;;;22.85;13.55;;;5.70;99.90;;;;;;5068967;28;20227;-51
2023/03/03 11:54:44;;;;;;;26.50;15.20;;;5.70;99.90;;;;;;5070129;28;20295;-49
2023/03/03 11:57:21;;;;;;;28.77;16.00;;;5.70;99.90;;;;;;5073134;28;20683;-49
2023/03/03 11:59:58;;;;;;;26.58;15.13;;;5.70;99.90;;;;;;5068144;28;20195;-49
2023/03/03 12:02:54;;;;;;;24.92;13.18;;;5.70;99.90;;;;;;5089594;28;20302;-48
2023/03/03 12:05:39;;;;;;;17.40;10.40;;;5.70;99.90;;;;;;5057043;28;20212;-48
2023/03/03 12:08:21;;;;;;;16.35;10.30;;;5.70;99.90;;;;;;5064980;28;20759;-48
2023/03/03 12:10:56;;;;;;;19.30;12.02;;;5.70;99.90;;;;;;5061928;28;20223;-48
2023/03/03 12:13:36;;;;;;;16.83;11.80;;;5.70;99.90;;;;;;5086702;28;20454;-48
2023/03/03 12:16:12;;;;;;;16.08;10.90;;;5.70;99.90;;;;;;5068635;28;20239;-50
2023/03/03 12:19:02;;;;;;;20.48;14.35;;;5.70;99.90;;;;;;5069085;28;20672;-49
2023/03/03 12:21:46;;;;;;;34.60;19.42;;;5.70;99.90;;;;;;5082740;28;20318;-48
2023/03/03 12:24:30;;;;;;;20.85;11.35;;;5.70;99.90;;;;;;5066783;28;20219;-49
2023/03/03 12:27:11;;;;;;;17.85;9.90;;;5.70;99.90;;;;;;5068468;28;20220;-52
2023/03/03 12:29:50;;;;;;;22.20;13.25;;;5.70;99.90;;;;;;5063208;28;20222;-49
2023/03/03 12:32:28;;;;;;;19.80;11.25;;;5.70;99.90;;;;;;5048873;28;20223;-50
2023/03/03 12:35:04;;;;;;;25.30;12.35;;;5.70;99.90;;;;;;5068364;28;20216;-50
2023/03/03 12:37:46;;;;;;;16.15;10.45;;;5.70;99.90;;;;;;5070457;28;20721;-48
2023/03/03 12:40:19;;;;;;;23.85;13.75;;;5.70;99.90;;;;;;5064162;28;20289;-49
2023/03/03 12:42:58;;;;;;;20.27;10.32;;;5.70;99.90;;;;;;5085790;28;20584;-48
2023/03/03 12:45:39;;;;;;;16.60;11.45;;;5.70;99.90;;;;;;5066441;28;20219;-48
2023/03/03 12:48:12;;;;;;;23.05;14.25;;;5.70;99.90;;;;;;5069066;28;20231;-50
2023/03/03 12:50:54;;;;;;;29.58;15.40;;;5.70;99.90;;;;;;5044345;28;20586;-48
2023/03/03 12:53:38;;;;;;;19.33;12.45;;;5.70;99.90;;;;;;5066226;28;20211;-48
2023/03/03 12:56:08;;;;;;;22.58;12.00;;;5.70;99.90;;;;;;5063280;28;20217;-49
2023/03/03 12:58:45;;;;;;;18.30;10.52;;;5.70;99.90;;;;;;5066748;28;20192;-49
2023/03/03 13:01:38;;;;;;;23.90;11.32;;;5.70;99.90;;;;;;5062773;28;20281;-51
2023/03/03 13:04:17;;;;;;;20.15;11.80;;;5.70;99.90;;;;;;5069309;28;20212;-49
2023/03/03 13:06:52;;;;;;;17.67;11.30;;;5.70;99.90;;;;;;5063967;28;20273;-50
2023/03/03 13:09:33;;;;;;;21.23;11.13;;;5.70;99.90;;;;;;5065484;28;20275;-50
2023/03/03 13:12:18;;;;;;;17.90;11.02;;;5.70;99.90;;;;;;5060824;28;20612;-49
2023/03/03 13:14:52;;;;;;;21.08;13.15;;;5.70;99.90;;;;;;5078746;28;20238;-49
2023/03/03 13:17:27;;;;;;;26.88;15.35;;;5.70;99.90;;;;;;5073154;28;20201;-48
2023/03/03 13:20:00;;;;;;;21.15;13.13;;;5.70;99.90;;;;;;5063430;28;20309;-48
2023/03/03 13:22:37;;;;;;;20.80;11.45;;;5.70;99.90;;;;;;5079675;28;20276;-50